SE-0035 weather

Överlanda
Överlanda, Västernorrlands län, Sweden

Public forecast

Using degrees Celsius for public forecast. Weather courtesy of forecast.io.

Closest aviation weather report (METAR) to Överlanda

Closest report is Kramfors Sollefteå Airport, 9.3 nm (17.3 km) NW. Retrieved 2019/10/15 06:20 UTC (1 minute ago):

ESNK 150620Z AUTO 28003KT 0250 R17/0800N R35/0700N FZFG VV003 M01/M01 Q1018

Closest aviation forecast (TAF) to Överlanda

Forecast is more than 12 hours old.

Closest forecast is Kramfors Sollefteå Airport, 9.3 nm (17.3 km) NW. Retrieved 2015/10/08 12:00 UTC (4 years ago):

TAF ESNK 081130Z 0812/0824 18005KT CAVOK PROB40 0820/0824 4000 BR